createdAt,value
2023-04-02T00:07:18.889Z,96.8
2023-04-02T00:17:18.840Z,96.8
2023-04-02T00:27:18.951Z,96.8
2023-04-02T00:37:18.905Z,97
2023-04-02T00:47:18.730Z,97
2023-04-02T00:57:18.847Z,97
2023-04-02T01:07:18.713Z,97
2023-04-02T01:17:18.707Z,97
2023-04-02T01:27:18.597Z,96.6
2023-04-02T01:37:18.614Z,96.2
2023-04-02T01:47:18.693Z,95.6
2023-04-02T01:57:18.576Z,95
2023-04-02T02:07:18.538Z,94.2
2023-04-02T02:17:18.604Z,93.6
2023-04-02T02:27:18.544Z,93
2023-04-02T02:37:18.619Z,92.4
2023-04-02T02:47:18.377Z,92.2
2023-04-02T02:57:18.360Z,91.4
2023-04-02T03:07:18.335Z,91.8
2023-04-02T03:17:18.287Z,91.8
2023-04-02T03:27:18.410Z,91.2
2023-04-02T03:37:18.426Z,91
2023-04-02T03:47:18.304Z,91
2023-04-02T03:57:18.262Z,90.8
2023-04-02T04:07:18.156Z,91.2
2023-04-02T04:17:18.218Z,91.4
2023-04-02T04:27:18.110Z,90.6
2023-04-02T04:37:18.091Z,90.4
2023-04-02T04:47:18.112Z,90.2
2023-04-02T04:57:18.026Z,89.6
2023-04-02T05:07:18.026Z,89.2
2023-04-02T05:17:18.102Z,88.6
2023-04-02T05:27:17.972Z,88.6
2023-04-02T05:37:17.946Z,88.6
2023-04-02T05:47:17.934Z,88.6
2023-04-02T05:57:17.872Z,88.6
2023-04-02T06:07:17.878Z,88.6
2023-04-02T06:17:17.821Z,88.4
2023-04-02T06:27:17.786Z,88.4
2023-04-02T06:37:17.765Z,88
2023-04-02T06:47:17.735Z,87.8
2023-04-02T06:57:17.716Z,88.4
2023-04-02T07:07:17.701Z,88.2
2023-04-02T07:17:17.672Z,88
2023-04-02T07:27:17.634Z,87.6
2023-04-02T07:37:17.607Z,87.6
2023-04-02T07:47:17.573Z,87.6
2023-04-02T07:57:17.557Z,88
2023-04-02T08:07:17.547Z,87.4
2023-04-02T08:17:17.500Z,86.6
2023-04-02T08:27:17.485Z,85.8
2023-04-02T08:37:17.528Z,85.8
2023-04-02T08:47:17.449Z,85
2023-04-02T08:57:17.449Z,84.2
2023-04-02T09:07:17.371Z,84
2023-04-02T09:17:17.350Z,83.2
2023-04-02T09:27:17.335Z,82.8
2023-04-02T09:37:17.295Z,83
2023-04-02T09:47:17.272Z,82.2
2023-04-02T09:57:17.238Z,82.4
2023-04-02T10:07:17.216Z,82.8
2023-04-02T10:17:17.309Z,82.4
2023-04-02T10:27:17.301Z,81.6
2023-04-02T10:37:17.175Z,80.6
2023-04-02T10:47:17.099Z,80.8
2023-04-02T10:57:17.107Z,79.2
2023-04-02T11:07:17.096Z,79.2
2023-04-02T11:17:17.036Z,78.4
2023-04-02T11:27:16.993Z,77.2
2023-04-02T11:37:16.976Z,76.2
2023-04-02T11:47:16.932Z,75.2
2023-04-02T11:57:16.904Z,75.6
2023-04-02T12:07:16.888Z,76.2
2023-04-02T12:17:16.848Z,76
2023-04-02T12:27:16.861Z,76.6
2023-04-02T12:37:16.858Z,77
2023-04-02T12:47:16.783Z,76.6
2023-04-02T12:57:16.741Z,76
2023-04-02T13:07:16.721Z,75
2023-04-02T13:17:16.691Z,74.2
2023-04-02T13:27:16.672Z,74.2
2023-04-02T13:37:16.636Z,73.4
2023-04-02T13:47:16.603Z,72.6
2023-04-02T13:57:16.567Z,72.2
2023-04-02T14:07:16.631Z,72.2
2023-04-02T14:17:16.563Z,72.2
2023-04-02T14:27:16.595Z,71
2023-04-02T14:37:16.542Z,70.4
2023-04-02T14:47:16.446Z,70.4
2023-04-02T14:57:16.408Z,69.2
2023-04-02T15:07:16.372Z,69.4
2023-04-02T15:17:16.370Z,69.8
2023-04-02T15:27:16.359Z,69.2
2023-04-02T15:37:16.311Z,69.2
2023-04-02T15:47:16.260Z,68.4
2023-04-02T15:57:16.229Z,67.6
2023-04-02T16:07:16.203Z,67.6
2023-04-02T16:17:16.179Z,66.8
2023-04-02T16:27:16.149Z,66.6
2023-04-02T16:37:16.135Z,65.2
2023-04-02T16:47:16.119Z,64.8
2023-04-02T16:57:16.074Z,63.2
2023-04-02T17:07:16.030Z,63.4
2023-04-02T17:17:16.033Z,64.2
2023-04-02T17:27:16.013Z,64
2023-04-02T17:37:15.982Z,64.6
2023-04-02T17:47:15.935Z,65.8
2023-04-02T17:57:16.029Z,65.8
2023-04-02T18:07:15.874Z,66.2
2023-04-02T18:17:15.831Z,66
2023-04-02T18:27:15.900Z,66.8
2023-04-02T18:37:15.808Z,66.4
2023-04-02T18:47:15.762Z,65
2023-04-02T18:57:15.921Z,65
2023-04-02T19:07:15.893Z,65.4
2023-04-02T19:17:15.828Z,66.2
2023-04-02T19:27:15.656Z,66.4
2023-04-02T19:37:15.808Z,65.6
2023-04-02T19:47:15.757Z,66.4
2023-04-02T19:57:15.716Z,67.6
2023-04-02T20:07:15.706Z,68
2023-04-02T20:17:15.525Z,68.4
2023-04-02T20:27:15.649Z,70.2
2023-04-02T20:37:15.640Z,70
2023-04-02T20:47:15.616Z,70.6
2023-04-02T20:57:15.582Z,70.2
2023-04-02T21:07:15.483Z,71.6
2023-04-02T21:17:15.524Z,72.2
2023-04-02T21:27:15.485Z,75.2
2023-04-02T21:37:15.506Z,76
2023-04-02T21:47:15.419Z,77.4
2023-04-02T21:57:15.360Z,80
2023-04-02T22:07:15.387Z,82
2023-04-02T22:17:15.373Z,83
2023-04-02T22:27:15.375Z,84
2023-04-02T22:37:15.372Z,84
2023-04-02T22:47:15.137Z,85
2023-04-02T22:57:15.368Z,85.8
2023-04-02T23:07:15.255Z,86.6
2023-04-02T23:17:15.221Z,86.8
2023-04-02T23:27:15.257Z,86.8
2023-04-02T23:37:15.223Z,86.4
2023-04-02T23:47:15.202Z,86
2023-04-02T23:57:15.226Z,86.2
